sensor_id;sensor_type;location;lat;lon;timestamp;temperature;humidity
32147;DHT22;32190;49.112;8.598;2023-02-18T00:02:17;15.30;62.30
32147;DHT22;32190;49.112;8.598;2023-02-18T00:08:07;15.40;62.30
32147;DHT22;32190;49.112;8.598;2023-02-18T00:14:00;15.40;62.30
32147;DHT22;32190;49.112;8.598;2023-02-18T00:19:51;15.40;62.20
32147;DHT22;32190;49.112;8.598;2023-02-18T00:25:41;15.40;62.20
32147;DHT22;32190;49.112;8.598;2023-02-18T00:31:34;15.40;62.10
32147;DHT22;32190;49.112;8.598;2023-02-18T00:37:25;15.40;62.10
32147;DHT22;32190;49.112;8.598;2023-02-18T00:43:15;15.40;62.00
32147;DHT22;32190;49.112;8.598;2023-02-18T00:49:06;15.50;62.00
32147;DHT22;32190;49.112;8.598;2023-02-18T00:54:57;15.50;62.10
32147;DHT22;32190;49.112;8.598;2023-02-18T01:00:48;15.50;62.10
32147;DHT22;32190;49.112;8.598;2023-02-18T01:06:38;15.50;62.10
32147;DHT22;32190;49.112;8.598;2023-02-18T01:12:29;15.50;62.10
32147;DHT22;32190;49.112;8.598;2023-02-18T01:18:20;15.50;62.10
32147;DHT22;32190;49.112;8.598;2023-02-18T01:24:11;15.40;62.10
32147;DHT22;32190;49.112;8.598;2023-02-18T01:30:07;15.50;62.00
32147;DHT22;32190;49.112;8.598;2023-02-18T01:35:57;15.50;62.10
32147;DHT22;32190;49.112;8.598;2023-02-18T01:41:48;15.40;62.00
32147;DHT22;32190;49.112;8.598;2023-02-18T01:47:38;15.40;61.90
32147;DHT22;32190;49.112;8.598;2023-02-18T01:53:37;15.40;62.00
32147;DHT22;32190;49.112;8.598;2023-02-18T01:59:36;15.40;62.00
32147;DHT22;32190;49.112;8.598;2023-02-18T02:05:32;15.40;62.00
32147;DHT22;32190;49.112;8.598;2023-02-18T02:36:11;15.40;62.10
32147;DHT22;32190;49.112;8.598;2023-02-18T02:48:47;15.40;62.10
32147;DHT22;32190;49.112;8.598;2023-02-18T02:54:37;15.30;62.20
32147;DHT22;32190;49.112;8.598;2023-02-18T03:13:14;15.40;62.20
32147;DHT22;32190;49.112;8.598;2023-02-18T03:19:18;15.30;62.20
32147;DHT22;32190;49.112;8.598;2023-02-18T03:25:10;15.30;62.40
32147;DHT22;32190;49.112;8.598;2023-02-18T03:31:09;15.30;62.40
32147;DHT22;32190;49.112;8.598;2023-02-18T03:37:02;15.30;62.40
32147;DHT22;32190;49.112;8.598;2023-02-18T03:42:53;15.30;62.30
32147;DHT22;32190;49.112;8.598;2023-02-18T03:48:45;15.30;62.30
32147;DHT22;32190;49.112;8.598;2023-02-18T03:54:36;15.30;62.40
32147;DHT22;32190;49.112;8.598;2023-02-18T04:00:27;15.30;62.90
32147;DHT22;32190;49.112;8.598;2023-02-18T04:06:17;15.30;62.30
32147;DHT22;32190;49.112;8.598;2023-02-18T04:12:08;15.30;62.40
32147;DHT22;32190;49.112;8.598;2023-02-18T04:17:58;15.30;62.40
32147;DHT22;32190;49.112;8.598;2023-02-18T04:23:49;15.30;62.40
32147;DHT22;32190;49.112;8.598;2023-02-18T04:29:39;15.30;62.40
32147;DHT22;32190;49.112;8.598;2023-02-18T04:35:30;15.30;62.30
32147;DHT22;32190;49.112;8.598;2023-02-18T04:41:21;15.40;62.40
32147;DHT22;32190;49.112;8.598;2023-02-18T04:47:11;15.30;62.30
32147;DHT22;32190;49.112;8.598;2023-02-18T04:53:02;15.30;62.30
32147;DHT22;32190;49.112;8.598;2023-02-18T04:58:52;15.40;62.30
32147;DHT22;32190;49.112;8.598;2023-02-18T05:04:43;15.30;62.20
32147;DHT22;32190;49.112;8.598;2023-02-18T05:10:33;15.30;62.20
32147;DHT22;32190;49.112;8.598;2023-02-18T05:16:24;15.30;62.20
32147;DHT22;32190;49.112;8.598;2023-02-18T05:22:14;15.30;62.20
32147;DHT22;32190;49.112;8.598;2023-02-18T05:28:05;15.30;62.20
32147;DHT22;32190;49.112;8.598;2023-02-18T05:33:55;15.30;62.20
32147;DHT22;32190;49.112;8.598;2023-02-18T05:39:46;15.30;62.20
32147;DHT22;32190;49.112;8.598;2023-02-18T05:45:37;15.30;62.20
32147;DHT22;32190;49.112;8.598;2023-02-18T05:51:27;15.30;62.20
32147;DHT22;32190;49.112;8.598;2023-02-18T05:57:18;15.20;62.10
32147;DHT22;32190;49.112;8.598;2023-02-18T06:03:08;15.20;62.20
32147;DHT22;32190;49.112;8.598;2023-02-18T06:08:59;15.20;62.20
32147;DHT22;32190;49.112;8.598;2023-02-18T06:14:49;15.20;62.20
32147;DHT22;32190;49.112;8.598;2023-02-18T06:20:40;15.20;62.20
32147;DHT22;32190;49.112;8.598;2023-02-18T06:26:31;15.20;62.30
32147;DHT22;32190;49.112;8.598;2023-02-18T06:32:21;15.20;62.30
32147;DHT22;32190;49.112;8.598;2023-02-18T06:38:12;15.20;62.30
32147;DHT22;32190;49.112;8.598;2023-02-18T06:44:02;15.20;62.30
32147;DHT22;32190;49.112;8.598;2023-02-18T06:49:53;15.20;62.30
32147;DHT22;32190;49.112;8.598;2023-02-18T06:55:44;15.20;62.20
32147;DHT22;32190;49.112;8.598;2023-02-18T07:01:35;15.30;62.30
32147;DHT22;32190;49.112;8.598;2023-02-18T07:07:25;15.30;62.20
32147;DHT22;32190;49.112;8.598;2023-02-18T07:13:16;15.30;62.20
32147;DHT22;32190;49.112;8.598;2023-02-18T07:19:07;15.20;62.20
32147;DHT22;32190;49.112;8.598;2023-02-18T07:24:57;15.30;62.30
32147;DHT22;32190;49.112;8.598;2023-02-18T07:30:48;15.20;62.20
32147;DHT22;32190;49.112;8.598;2023-02-18T07:36:38;15.30;62.20
32147;DHT22;32190;49.112;8.598;2023-02-18T07:42:29;15.30;62.20
32147;DHT22;32190;49.112;8.598;2023-02-18T07:48:20;15.30;62.20
32147;DHT22;32190;49.112;8.598;2023-02-18T07:54:10;15.30;62.20
32147;DHT22;32190;49.112;8.598;2023-02-18T08:00:01;15.40;62.10
32147;DHT22;32190;49.112;8.598;2023-02-18T08:05:53;15.40;62.00
32147;DHT22;32190;49.112;8.598;2023-02-18T08:11:44;15.40;61.90
32147;DHT22;32190;49.112;8.598;2023-02-18T08:17:35;15.50;62.00
32147;DHT22;32190;49.112;8.598;2023-02-18T08:23:25;15.50;61.90
32147;DHT22;32190;49.112;8.598;2023-02-18T08:29:16;15.50;61.80
32147;DHT22;32190;49.112;8.598;2023-02-18T08:35:07;15.60;61.70
32147;DHT22;32190;49.112;8.598;2023-02-18T08:41:02;15.60;61.60
32147;DHT22;32190;49.112;8.598;2023-02-18T08:46:53;15.60;61.40
32147;DHT22;32190;49.112;8.598;2023-02-18T08:52:44;15.70;61.50
32147;DHT22;32190;49.112;8.598;2023-02-18T08:58:35;15.70;61.40
32147;DHT22;32190;49.112;8.598;2023-02-18T09:04:26;15.80;61.30
32147;DHT22;32190;49.112;8.598;2023-02-18T09:10:17;15.90;61.20
32147;DHT22;32190;49.112;8.598;2023-02-18T09:16:15;15.90;61.20
32147;DHT22;32190;49.112;8.598;2023-02-18T09:22:09;15.90;60.90
32147;DHT22;32190;49.112;8.598;2023-02-18T09:28:00;16.00;60.90
32147;DHT22;32190;49.112;8.598;2023-02-18T09:33:55;16.00;60.90
32147;DHT22;32190;49.112;8.598;2023-02-18T09:39:47;16.00;60.70
32147;DHT22;32190;49.112;8.598;2023-02-18T09:45:38;16.00;60.70
32147;DHT22;32190;49.112;8.598;2023-02-18T09:51:31;16.00;60.70
32147;DHT22;32190;49.112;8.598;2023-02-18T09:57:23;16.00;60.70
32147;DHT22;32190;49.112;8.598;2023-02-18T10:03:20;16.10;60.60
32147;DHT22;32190;49.112;8.598;2023-02-18T10:15:20;16.10;60.10
32147;DHT22;32190;49.112;8.598;2023-02-18T10:21:19;16.10;60.10
32147;DHT22;32190;49.112;8.598;2023-02-18T10:27:20;16.10;60.00
32147;DHT22;32190;49.112;8.598;2023-02-18T10:39:39;16.20;60.10
32147;DHT22;32190;49.112;8.598;2023-02-18T10:45:51;16.30;60.20
32147;DHT22;32190;49.112;8.598;2023-02-18T10:51:47;16.40;59.90
32147;DHT22;32190;49.112;8.598;2023-02-18T10:57:51;16.50;59.50
32147;DHT22;32190;49.112;8.598;2023-02-18T11:03:43;16.50;59.40
32147;DHT22;32190;49.112;8.598;2023-02-18T11:09:48;16.60;59.40
32147;DHT22;32190;49.112;8.598;2023-02-18T11:15:56;16.60;59.10
32147;DHT22;32190;49.112;8.598;2023-02-18T11:21:47;16.70;58.90
32147;DHT22;32190;49.112;8.598;2023-02-18T11:27:42;16.70;59.00
32147;DHT22;32190;49.112;8.598;2023-02-18T11:33:39;16.70;58.70
32147;DHT22;32190;49.112;8.598;2023-02-18T11:39:30;16.80;58.80
32147;DHT22;32190;49.112;8.598;2023-02-18T11:45:30;16.80;58.70
32147;DHT22;32190;49.112;8.598;2023-02-18T11:51:25;16.80;58.40
32147;DHT22;32190;49.112;8.598;2023-02-18T11:57:17;16.80;58.30
32147;DHT22;32190;49.112;8.598;2023-02-18T12:15:14;16.90;58.50
32147;DHT22;32190;49.112;8.598;2023-02-18T12:21:08;17.00;58.30
32147;DHT22;32190;49.112;8.598;2023-02-18T12:27:16;17.00;58.40
32147;DHT22;32190;49.112;8.598;2023-02-18T12:33:14;17.10;58.00
32147;DHT22;32190;49.112;8.598;2023-02-18T12:45:34;17.30;57.30
32147;DHT22;32190;49.112;8.598;2023-02-18T12:51:53;17.30;57.50
32147;DHT22;32190;49.112;8.598;2023-02-18T12:57:51;17.40;57.30
32147;DHT22;32190;49.112;8.598;2023-02-18T13:16:29;17.50;57.50
32147;DHT22;32190;49.112;8.598;2023-02-18T13:22:22;17.60;57.60
32147;DHT22;32190;49.112;8.598;2023-02-18T13:28:30;17.70;57.50
32147;DHT22;32190;49.112;8.598;2023-02-18T13:40:36;17.70;56.60
32147;DHT22;32190;49.112;8.598;2023-02-18T13:46:27;17.80;56.20
32147;DHT22;32190;49.112;8.598;2023-02-18T13:52:18;17.80;56.00
32147;DHT22;32190;49.112;8.598;2023-02-18T13:58:23;17.90;55.50
32147;DHT22;32190;49.112;8.598;2023-02-18T14:10:34;17.90;54.00
32147;DHT22;32190;49.112;8.598;2023-02-18T14:16:26;17.90;54.40
32147;DHT22;32190;49.112;8.598;2023-02-18T14:22:50;18.00;54.80
32147;DHT22;32190;49.112;8.598;2023-02-18T14:47:22;17.90;53.50
32147;DHT22;32190;49.112;8.598;2023-02-18T14:53:21;17.90;52.70
32147;DHT22;32190;49.112;8.598;2023-02-18T14:59:13;17.90;53.20
32147;DHT22;32190;49.112;8.598;2023-02-18T15:05:20;17.80;53.30
32147;DHT22;32190;49.112;8.598;2023-02-18T15:11:11;17.70;52.50
32147;DHT22;32190;49.112;8.598;2023-02-18T15:17:03;17.70;52.70
32147;DHT22;32190;49.112;8.598;2023-02-18T15:22:54;17.70;52.80
32147;DHT22;32190;49.112;8.598;2023-02-18T15:29:14;17.60;52.10
32147;DHT22;32190;49.112;8.598;2023-02-18T15:35:16;17.40;52.10
32147;DHT22;32190;49.112;8.598;2023-02-18T15:41:13;17.40;52.40
32147;DHT22;32190;49.112;8.598;2023-02-18T15:47:07;17.30;52.30
32147;DHT22;32190;49.112;8.598;2023-02-18T15:53:04;17.30;52.50
32147;DHT22;32190;49.112;8.598;2023-02-18T15:59:25;17.20;53.00
32147;DHT22;32190;49.112;8.598;2023-02-18T16:05:17;17.20;52.20
32147;DHT22;32190;49.112;8.598;2023-02-18T16:11:11;17.20;52.80
32147;DHT22;32190;49.112;8.598;2023-02-18T16:17:14;17.10;52.60
32147;DHT22;32190;49.112;8.598;2023-02-18T16:23:13;17.00;52.70
32147;DHT22;32190;49.112;8.598;2023-02-18T16:29:12;17.00;53.30
32147;DHT22;32190;49.112;8.598;2023-02-18T16:35:02;17.00;53.30
32147;DHT22;32190;49.112;8.598;2023-02-18T16:40:53;17.00;53.50
32147;DHT22;32190;49.112;8.598;2023-02-18T16:46:44;17.00;53.50
32147;DHT22;32190;49.112;8.598;2023-02-18T16:52:35;17.00;53.40
32147;DHT22;32190;49.112;8.598;2023-02-18T16:58:26;16.90;53.20
32147;DHT22;32190;49.112;8.598;2023-02-18T17:04:17;16.80;53.10
32147;DHT22;32190;49.112;8.598;2023-02-18T17:10:09;16.70;53.40
32147;DHT22;32190;49.112;8.598;2023-02-18T17:16:00;16.70;53.40
32147;DHT22;32190;49.112;8.598;2023-02-18T17:21:51;16.70;53.20
32147;DHT22;32190;49.112;8.598;2023-02-18T17:27:41;16.60;53.40
32147;DHT22;32190;49.112;8.598;2023-02-18T17:33:32;16.60;53.50
32147;DHT22;32190;49.112;8.598;2023-02-18T17:39:22;16.50;53.00
32147;DHT22;32190;49.112;8.598;2023-02-18T17:45:25;16.50;53.30
32147;DHT22;32190;49.112;8.598;2023-02-18T17:51:29;16.50;53.20
32147;DHT22;32190;49.112;8.598;2023-02-18T17:57:20;16.40;53.20
32147;DHT22;32190;49.112;8.598;2023-02-18T18:03:12;16.40;53.20
32147;DHT22;32190;49.112;8.598;2023-02-18T18:09:03;16.40;53.40
32147;DHT22;32190;49.112;8.598;2023-02-18T18:14:54;16.30;53.50
32147;DHT22;32190;49.112;8.598;2023-02-18T18:20:47;16.30;53.50
32147;DHT22;32190;49.112;8.598;2023-02-18T18:26:38;16.30;53.60
32147;DHT22;32190;49.112;8.598;2023-02-18T18:32:28;16.30;53.70
32147;DHT22;32190;49.112;8.598;2023-02-18T18:38:21;16.30;53.70
32147;DHT22;32190;49.112;8.598;2023-02-18T18:44:12;16.20;53.80
32147;DHT22;32190;49.112;8.598;2023-02-18T18:50:02;16.20;53.80
32147;DHT22;32190;49.112;8.598;2023-02-18T18:55:59;16.10;53.80
32147;DHT22;32190;49.112;8.598;2023-02-18T19:01:51;16.10;54.10
32147;DHT22;32190;49.112;8.598;2023-02-18T19:07:41;16.10;54.10
32147;DHT22;32190;49.112;8.598;2023-02-18T19:13:32;16.00;54.20
32147;DHT22;32190;49.112;8.598;2023-02-18T19:19:25;16.00;55.10
32147;DHT22;32190;49.112;8.598;2023-02-18T19:25:16;16.00;54.50
32147;DHT22;32190;49.112;8.598;2023-02-18T19:31:08;15.90;54.60
32147;DHT22;32190;49.112;8.598;2023-02-18T19:36:59;15.90;54.70
32147;DHT22;32190;49.112;8.598;2023-02-18T19:42:51;15.90;54.80
32147;DHT22;32190;49.112;8.598;2023-02-18T19:48:42;15.80;54.90
32147;DHT22;32190;49.112;8.598;2023-02-18T19:54:33;15.80;54.90
32147;DHT22;32190;49.112;8.598;2023-02-18T20:00:23;15.80;55.10
32147;DHT22;32190;49.112;8.598;2023-02-18T20:06:19;15.80;55.20
32147;DHT22;32190;49.112;8.598;2023-02-18T20:12:11;15.80;55.20
32147;DHT22;32190;49.112;8.598;2023-02-18T20:18:02;15.80;55.30
32147;DHT22;32190;49.112;8.598;2023-02-18T20:23:53;15.70;55.30
32147;DHT22;32190;49.112;8.598;2023-02-18T20:29:44;15.70;55.40
32147;DHT22;32190;49.112;8.598;2023-02-18T20:35:35;15.70;55.40
32147;DHT22;32190;49.112;8.598;2023-02-18T20:41:25;15.70;55.40
32147;DHT22;32190;49.112;8.598;2023-02-18T20:47:16;15.70;55.50
32147;DHT22;32190;49.112;8.598;2023-02-18T20:53:06;15.70;55.60
32147;DHT22;32190;49.112;8.598;2023-02-18T20:58:57;15.60;55.50
32147;DHT22;32190;49.112;8.598;2023-02-18T21:04:48;15.60;55.50
32147;DHT22;32190;49.112;8.598;2023-02-18T21:10:39;15.60;55.60
32147;DHT22;32190;49.112;8.598;2023-02-18T21:16:30;15.60;56.00
32147;DHT22;32190;49.112;8.598;2023-02-18T21:22:27;15.50;55.70
32147;DHT22;32190;49.112;8.598;2023-02-18T21:28:18;15.50;55.70
32147;DHT22;32190;49.112;8.598;2023-02-18T21:34:13;15.50;55.80
32147;DHT22;32190;49.112;8.598;2023-02-18T21:40:05;15.50;55.80
32147;DHT22;32190;49.112;8.598;2023-02-18T21:46:12;15.50;56.40
32147;DHT22;32190;49.112;8.598;2023-02-18T21:52:03;15.40;55.70
32147;DHT22;32190;49.112;8.598;2023-02-18T21:57:59;15.50;55.80
32147;DHT22;32190;49.112;8.598;2023-02-18T22:03:50;15.40;55.90
32147;DHT22;32190;49.112;8.598;2023-02-18T22:09:40;15.40;56.00
32147;DHT22;32190;49.112;8.598;2023-02-18T22:15:31;15.40;56.10
32147;DHT22;32190;49.112;8.598;2023-02-18T22:21:21;15.30;56.20
32147;DHT22;32190;49.112;8.598;2023-02-18T22:27:12;15.30;56.20
32147;DHT22;32190;49.112;8.598;2023-02-18T22:33:02;15.20;56.20
32147;DHT22;32190;49.112;8.598;2023-02-18T22:38:53;15.20;56.30
32147;DHT22;32190;49.112;8.598;2023-02-18T22:44:44;15.10;56.40
32147;DHT22;32190;49.112;8.598;2023-02-18T22:50:35;15.10;56.50
32147;DHT22;32190;49.112;8.598;2023-02-18T22:56:27;15.00;56.50
32147;DHT22;32190;49.112;8.598;2023-02-18T23:02:17;15.00;56.60
32147;DHT22;32190;49.112;8.598;2023-02-18T23:08:10;15.00;56.70
32147;DHT22;32190;49.112;8.598;2023-02-18T23:14:01;15.00;56.70
32147;DHT22;32190;49.112;8.598;2023-02-18T23:20:10;15.00;56.80
32147;DHT22;32190;49.112;8.598;2023-02-18T23:26:01;14.90;56.80
32147;DHT22;32190;49.112;8.598;2023-02-18T23:31:51;14.80;56.90
32147;DHT22;32190;49.112;8.598;2023-02-18T23:37:42;14.80;57.10
32147;DHT22;32190;49.112;8.598;2023-02-18T23:43:51;14.70;57.20
32147;DHT22;32190;49.112;8.598;2023-02-18T23:49:42;14.60;57.30
32147;DHT22;32190;49.112;8.598;2023-02-18T23:55:32;14.60;57.40
